Time;durP1;ratioP1;P1;durP2;ratioP2;P2;SDS_P1;SDS_P2;PMS_P1;PMS_P2;Temp;Humidity;BMP_temperature;BMP_pressure;BME280_temperature;BME280_humidity;BME280_pressure;Samples;Min_cycle;Max_cycle;Signal;HPM_P1;HPM_P2
2021/01/31 00:01:34;;;;;;;49.07;30.17;;;;;;;;;;4897777;29;20437;-81
2021/01/31 00:04:00;;;;;;;50.08;29.80;;;;;;;;;;4890975;29;20433;-81
2021/01/31 00:06:26;;;;;;;47.65;29.60;;;;;;;;;;4913546;29;20444;-80
2021/01/31 00:08:52;;;;;;;46.63;28.63;;;;;;;;;;4912198;29;20408;-80
2021/01/31 00:11:18;;;;;;;45.90;28.67;;;;;;;;;;4914465;29;20405;-81
2021/01/31 00:13:45;;;;;;;47.63;29.35;;;;;;;;;;4896819;29;20492;-80
2021/01/31 00:16:11;;;;;;;46.50;29.63;;;;;;;;;;4913026;29;20837;-80
2021/01/31 00:18:37;;;;;;;45.10;28.77;;;;;;;;;;4912064;29;20409;-81
2021/01/31 00:21:04;;;;;;;42.63;27.45;;;;;;;;;;4897143;29;20517;-81
2021/01/31 00:23:30;;;;;;;46.08;28.75;;;;;;;;;;4896500;29;20903;-82
2021/01/31 00:25:56;;;;;;;47.85;29.25;;;;;;;;;;4887921;29;20924;-81
2021/01/31 00:28:23;;;;;;;47.08;28.58;;;;;;;;;;4911081;29;20492;-81
2021/01/31 00:30:49;;;;;;;46.95;29.70;;;;;;;;;;4897422;29;20408;-81
2021/01/31 00:33:20;;;;;;;48.45;29.88;;;;;;;;;;4897067;29;20425;-81
2021/01/31 00:35:46;;;;;;;45.00;27.58;;;;;;;;;;4893043;29;20447;-80
2021/01/31 00:38:14;;;;;;;46.03;28.88;;;;;;;;;;4892207;29;20420;-80
2021/01/31 00:40:40;;;;;;;45.00;28.05;;;;;;;;;;4897096;29;20888;-80
2021/01/31 00:43:07;;;;;;;48.60;28.08;;;;;;;;;;4893495;29;20464;-81
2021/01/31 00:45:33;;;;;;;43.25;28.13;;;;;;;;;;4895875;29;20480;-80
2021/01/31 00:47:59;;;;;;;43.85;27.55;;;;;;;;;;4897124;29;20485;-80
2021/01/31 00:50:27;;;;;;;45.00;27.05;;;;;;;;;;4896653;29;20472;-80
2021/01/31 00:52:53;;;;;;;44.38;27.90;;;;;;;;;;4896252;29;20427;-80
2021/01/31 00:55:19;;;;;;;45.45;28.17;;;;;;;;;;4896444;29;20429;-80
2021/01/31 00:57:46;;;;;;;45.38;28.98;;;;;;;;;;4896533;29;20441;-80
2021/01/31 01:00:12;;;;;;;43.33;27.35;;;;;;;;;;4896745;29;20402;-80
2021/01/31 01:02:38;;;;;;;45.38;26.95;;;;;;;;;;4896862;29;20398;-80
2021/01/31 01:05:04;;;;;;;43.50;27.40;;;;;;;;;;4891890;29;20531;-81
2021/01/31 01:07:30;;;;;;;41.72;26.30;;;;;;;;;;4896133;29;20413;-80
2021/01/31 01:09:56;;;;;;;42.43;27.20;;;;;;;;;;4897439;29;20942;-80
2021/01/31 01:12:22;;;;;;;44.40;28.15;;;;;;;;;;4896615;29;20398;-80
2021/01/31 01:14:48;;;;;;;43.17;26.92;;;;;;;;;;4894515;29;20413;-80
2021/01/31 01:17:13;;;;;;;42.25;27.45;;;;;;;;;;4894218;29;20469;-80
2021/01/31 01:19:39;;;;;;;40.55;25.75;;;;;;;;;;4896333;29;20409;-80
2021/01/31 01:22:05;;;;;;;40.83;26.08;;;;;;;;;;4896029;29;20920;-80
2021/01/31 01:24:31;;;;;;;40.40;26.15;;;;;;;;;;4889399;29;20726;-82
2021/01/31 01:26:57;;;;;;;40.70;26.70;;;;;;;;;;4890875;29;20419;-80
2021/01/31 01:29:24;;;;;;;42.28;26.33;;;;;;;;;;4894381;29;20409;-80
2021/01/31 01:31:50;;;;;;;42.85;26.42;;;;;;;;;;4895811;29;20397;-79
2021/01/31 01:34:16;;;;;;;40.80;25.52;;;;;;;;;;4896047;29;20394;-80
2021/01/31 01:36:42;;;;;;;39.67;25.75;;;;;;;;;;4894135;29;20764;-81
2021/01/31 01:39:08;;;;;;;40.78;25.70;;;;;;;;;;4895599;29;20480;-80
2021/01/31 01:41:38;;;;;;;39.78;25.42;;;;;;;;;;4896357;29;20411;-79
2021/01/31 01:44:04;;;;;;;40.42;25.67;;;;;;;;;;4908122;29;20445;-79
2021/01/31 01:46:35;;;;;;;40.30;25.02;;;;;;;;;;4895441;29;20437;-80
2021/01/31 01:49:04;;;;;;;45.25;27.75;;;;;;;;;;4895740;29;20416;-80
2021/01/31 01:51:34;;;;;;;41.60;25.98;;;;;;;;;;4895367;29;20413;-79
2021/01/31 01:54:01;;;;;;;43.25;26.33;;;;;;;;;;4893546;29;20418;-79
2021/01/31 01:56:35;;;;;;;43.70;26.90;;;;;;;;;;4895850;29;20425;-79
2021/01/31 01:59:01;;;;;;;48.78;27.63;;;;;;;;;;4895064;29;20480;-80
2021/01/31 02:01:27;;;;;;;45.00;27.53;;;;;;;;;;4896178;29;21027;-80
2021/01/31 02:03:54;;;;;;;45.65;27.83;;;;;;;;;;4893135;29;20776;-79
2021/01/31 02:06:22;;;;;;;45.15;27.05;;;;;;;;;;4909313;29;20406;-80
2021/01/31 02:08:49;;;;;;;45.35;27.42;;;;;;;;;;4911105;29;20481;-79
2021/01/31 02:11:15;;;;;;;43.63;26.67;;;;;;;;;;4895454;29;20497;-79
2021/01/31 02:13:43;;;;;;;41.63;25.92;;;;;;;;;;4895241;29;20421;-79
2021/01/31 02:16:16;;;;;;;45.00;28.00;;;;;;;;;;4906423;29;20499;-79
2021/01/31 02:18:48;;;;;;;45.08;26.52;;;;;;;;;;4894783;29;20416;-79
2021/01/31 02:21:40;;;;;;;43.67;26.93;;;;;;;;;;4894553;29;20580;-81
2021/01/31 02:24:06;;;;;;;41.73;25.73;;;;;;;;;;4867099;29;20411;-79
2021/01/31 02:26:32;;;;;;;44.10;26.92;;;;;;;;;;4907885;29;20412;-79
2021/01/31 02:29:29;;;;;;;44.03;27.00;;;;;;;;;;4895315;29;20875;-78
2021/01/31 02:32:03;;;;;;;45.10;27.50;;;;;;;;;;4895400;29;20423;-79
2021/01/31 02:34:32;;;;;;;43.28;26.33;;;;;;;;;;4906637;29;20424;-79
2021/01/31 02:37:19;;;;;;;43.30;26.58;;;;;;;;;;4895020;29;20425;-79
2021/01/31 02:39:59;;;;;;;43.58;26.40;;;;;;;;;;4894667;29;21059;-80
2021/01/31 02:42:38;;;;;;;43.17;26.83;;;;;;;;;;4908948;29;20502;-80
2021/01/31 02:45:14;;;;;;;44.08;26.58;;;;;;;;;;4909890;29;20433;-79
2021/01/31 02:47:44;;;;;;;43.40;27.13;;;;;;;;;;4894532;29;20409;-80
2021/01/31 02:50:12;;;;;;;42.13;25.88;;;;;;;;;;4903822;29;20457;-79
2021/01/31 02:52:42;;;;;;;46.97;27.40;;;;;;;;;;4895613;29;20409;-79
2021/01/31 02:55:13;;;;;;;47.80;28.50;;;;;;;;;;4909998;29;20473;-79
2021/01/31 02:57:43;;;;;;;45.17;27.13;;;;;;;;;;4910528;29;20488;-79
2021/01/31 03:00:15;;;;;;;43.92;26.80;;;;;;;;;;4894206;29;20489;-80
2021/01/31 03:03:00;;;;;;;46.30;27.80;;;;;;;;;;4894893;29;20934;-80
2021/01/31 03:05:28;;;;;;;48.90;28.35;;;;;;;;;;4893945;29;20483;-79
2021/01/31 03:08:02;;;;;;;47.00;28.07;;;;;;;;;;4914607;29;20405;-79
2021/01/31 03:10:32;;;;;;;46.67;27.75;;;;;;;;;;4896176;29;20406;-79
2021/01/31 03:13:08;;;;;;;48.25;28.15;;;;;;;;;;4912090;29;20514;-79
2021/01/31 03:15:38;;;;;;;44.97;26.55;;;;;;;;;;4912815;29;20425;-79
2021/01/31 03:18:15;;;;;;;48.03;28.65;;;;;;;;;;4914180;29;20476;-79
2021/01/31 03:20:45;;;;;;;47.25;28.52;;;;;;;;;;4895604;29;20893;-79
2021/01/31 03:23:18;;;;;;;46.58;28.00;;;;;;;;;;4907335;29;20435;-78
2021/01/31 03:25:46;;;;;;;45.83;27.60;;;;;;;;;;4893993;29;20480;-79
2021/01/31 03:28:12;;;;;;;45.58;26.83;;;;;;;;;;4914499;29;20480;-80
2021/01/31 03:30:38;;;;;;;47.70;26.65;;;;;;;;;;4914746;29;20480;-80
2021/01/31 03:33:07;;;;;;;45.45;27.95;;;;;;;;;;4914020;29;20448;-79
2021/01/31 03:35:38;;;;;;;49.15;28.58;;;;;;;;;;4897474;29;21077;-79
2021/01/31 03:38:23;;;;;;;43.42;26.45;;;;;;;;;;4910563;29;20472;-78
2021/01/31 03:40:52;;;;;;;48.22;28.38;;;;;;;;;;4913366;29;20437;-79
2021/01/31 03:43:18;;;;;;;51.38;29.83;;;;;;;;;;4913888;29;20436;-78
2021/01/31 03:46:03;;;;;;;48.22;28.45;;;;;;;;;;4913693;29;20505;-78
2021/01/31 03:48:32;;;;;;;48.85;29.33;;;;;;;;;;4913278;29;20420;-78
2021/01/31 03:50:59;;;;;;;46.85;28.25;;;;;;;;;;4905047;29;20449;-78
2021/01/31 03:53:25;;;;;;;46.03;28.08;;;;;;;;;;4913029;29;20472;-78
2021/01/31 03:55:52;;;;;;;46.58;28.95;;;;;;;;;;4913482;29;20440;-78
2021/01/31 03:58:19;;;;;;;47.10;27.60;;;;;;;;;;4914055;29;20880;-79
2021/01/31 04:00:50;;;;;;;45.47;27.55;;;;;;;;;;4911505;29;20398;-78
2021/01/31 04:03:18;;;;;;;47.05;28.15;;;;;;;;;;4914750;29;20730;-78
2021/01/31 04:05:51;;;;;;;47.10;27.55;;;;;;;;;;4893275;29;21019;-79
2021/01/31 04:08:18;;;;;;;45.03;27.65;;;;;;;;;;4912706;29;20417;-78
2021/01/31 04:10:44;;;;;;;43.03;26.48;;;;;;;;;;4893646;29;20401;-79
2021/01/31 04:13:11;;;;;;;44.58;26.70;;;;;;;;;;4912924;29;20457;-78
2021/01/31 04:15:40;;;;;;;45.10;27.05;;;;;;;;;;4896808;29;20422;-79
2021/01/31 04:18:07;;;;;;;43.03;25.67;;;;;;;;;;4896117;29;20406;-79
2021/01/31 04:20:33;;;;;;;47.13;27.85;;;;;;;;;;4897701;29;20414;-79
2021/01/31 04:22:59;;;;;;;44.33;26.27;;;;;;;;;;4912735;29;20430;-78
2021/01/31 04:25:26;;;;;;;43.42;25.80;;;;;;;;;;4897546;29;20397;-79
2021/01/31 04:27:52;;;;;;;47.28;28.27;;;;;;;;;;4897290;29;20872;-79
2021/01/31 04:30:18;;;;;;;46.15;27.25;;;;;;;;;;4912233;29;20407;-79
2021/01/31 04:32:43;;;;;;;46.55;26.25;;;;;;;;;;4897003;29;20498;-79
2021/01/31 04:35:10;;;;;;;46.35;27.13;;;;;;;;;;4912577;29;20428;-79
2021/01/31 04:37:36;;;;;;;45.10;26.63;;;;;;;;;;4912965;29;20442;-79
2021/01/31 04:40:06;;;;;;;44.58;26.92;;;;;;;;;;4913053;29;20411;-79
2021/01/31 04:42:32;;;;;;;43.47;25.42;;;;;;;;;;4913249;29;20401;-78
2021/01/31 04:44:58;;;;;;;44.60;26.02;;;;;;;;;;4912850;29;20420;-79
2021/01/31 04:47:30;;;;;;;42.38;25.75;;;;;;;;;;4912124;29;20473;-79
2021/01/31 04:49:56;;;;;;;46.17;27.35;;;;;;;;;;4895871;29;20418;-79
2021/01/31 04:52:34;;;;;;;44.35;26.92;;;;;;;;;;4912632;29;20477;-78
2021/01/31 04:55:09;;;;;;;48.08;27.83;;;;;;;;;;4913944;29;20453;-79
2021/01/31 04:57:35;;;;;;;44.92;26.85;;;;;;;;;;4913017;29;20436;-79
2021/01/31 05:00:02;;;;;;;43.67;26.07;;;;;;;;;;4911611;29;20871;-79
2021/01/31 05:02:31;;;;;;;45.72;27.20;;;;;;;;;;4912643;29;20487;-79
2021/01/31 05:04:59;;;;;;;43.85;26.08;;;;;;;;;;4894767;29;20421;-79
2021/01/31 05:07:37;;;;;;;45.05;26.42;;;;;;;;;;4896392;29;20428;-78
2021/01/31 05:10:05;;;;;;;42.88;25.90;;;;;;;;;;4908763;29;20715;-79
2021/01/31 05:12:52;;;;;;;45.22;27.23;;;;;;;;;;4896315;29;20424;-78
2021/01/31 05:15:21;;;;;;;43.13;25.80;;;;;;;;;;4896710;29;20547;-78
2021/01/31 05:17:49;;;;;;;46.27;26.70;;;;;;;;;;4910608;29;20408;-78
2021/01/31 05:20:17;;;;;;;43.70;25.77;;;;;;;;;;4911971;29;20402;-79
2021/01/31 05:22:47;;;;;;;45.83;26.60;;;;;;;;;;4895914;29;20421;-79
2021/01/31 05:25:15;;;;;;;43.40;26.45;;;;;;;;;;4894651;29;20408;-79
2021/01/31 05:27:42;;;;;;;46.40;27.30;;;;;;;;;;4912182;29;20788;-79
2021/01/31 05:30:08;;;;;;;45.45;26.58;;;;;;;;;;4911227;29;20465;-80
2021/01/31 05:32:54;;;;;;;47.22;26.27;;;;;;;;;;4894567;29;20401;-79
2021/01/31 05:35:23;;;;;;;47.87;28.03;;;;;;;;;;4911642;29;20472;-78
2021/01/31 05:37:49;;;;;;;47.78;28.00;;;;;;;;;;4909824;29;20439;-78
2021/01/31 05:40:30;;;;;;;48.23;27.07;;;;;;;;;;4901942;29;20421;-79
2021/01/31 05:42:57;;;;;;;46.35;27.98;;;;;;;;;;4912799;29;20860;-79
2021/01/31 05:45:23;;;;;;;50.73;29.40;;;;;;;;;;4911308;29;20912;-79
2021/01/31 05:47:50;;;;;;;49.42;28.17;;;;;;;;;;4896135;29;20398;-79
2021/01/31 05:50:34;;;;;;;49.03;28.35;;;;;;;;;;4910634;29;20396;-79
2021/01/31 05:53:19;;;;;;;47.28;27.15;;;;;;;;;;4896165;29;20803;-79
2021/01/31 05:55:45;;;;;;;45.17;26.65;;;;;;;;;;4912536;29;20995;-79
2021/01/31 05:58:17;;;;;;;44.45;25.77;;;;;;;;;;4910370;29;20429;-79
2021/01/31 06:00:44;;;;;;;45.27;26.47;;;;;;;;;;4910998;29;20405;-79
2021/01/31 06:03:11;;;;;;;52.70;27.58;;;;;;;;;;4910840;29;20852;-79
2021/01/31 06:05:37;;;;;;;46.55;26.95;;;;;;;;;;4911471;29;20476;-80
2021/01/31 06:08:03;;;;;;;45.83;27.90;;;;;;;;;;4911419;29;20398;-79
2021/01/31 06:10:30;;;;;;;44.80;27.48;;;;;;;;;;4902587;29;20409;-79
2021/01/31 06:13:05;;;;;;;48.50;27.15;;;;;;;;;;4911528;29;20448;-78
2021/01/31 06:15:38;;;;;;;45.40;27.70;;;;;;;;;;4910959;29;20413;-80
2021/01/31 06:18:07;;;;;;;46.92;26.38;;;;;;;;;;4912591;29;20397;-78
2021/01/31 06:20:35;;;;;;;47.70;27.48;;;;;;;;;;4910592;29;20389;-79
2021/01/31 06:23:03;;;;;;;49.65;28.40;;;;;;;;;;4911036;29;20488;-80
2021/01/31 06:25:29;;;;;;;45.97;26.27;;;;;;;;;;4910623;29;20566;-79
2021/01/31 06:27:56;;;;;;;48.50;27.55;;;;;;;;;;4911452;29;20920;-79
2021/01/31 06:30:26;;;;;;;48.67;27.55;;;;;;;;;;4911214;29;20701;-79
2021/01/31 06:32:53;;;;;;;48.00;28.00;;;;;;;;;;4895449;29;20456;-79
2021/01/31 06:35:21;;;;;;;49.63;28.50;;;;;;;;;;4910574;29;20461;-79
2021/01/31 06:37:50;;;;;;;48.93;27.97;;;;;;;;;;4895537;29;20405;-79
2021/01/31 06:40:34;;;;;;;50.88;29.42;;;;;;;;;;4910043;29;20405;-79
2021/01/31 06:43:06;;;;;;;53.93;29.40;;;;;;;;;;4912543;29;20498;-79
2021/01/31 06:45:35;;;;;;;54.10;30.60;;;;;;;;;;4910580;29;20853;-79
2021/01/31 06:48:16;;;;;;;59.83;31.95;;;;;;;;;;4894823;29;20401;-79
2021/01/31 06:51:01;;;;;;;56.85;31.20;;;;;;;;;;4894769;29;20476;-79
2021/01/31 06:53:33;;;;;;;56.58;31.80;;;;;;;;;;4906027;29;20397;-79
2021/01/31 06:56:02;;;;;;;59.47;32.47;;;;;;;;;;4895046;29;20436;-79
2021/01/31 06:58:46;;;;;;;56.30;31.83;;;;;;;;;;4910039;29;20880;-80
2021/01/31 07:01:20;;;;;;;58.63;32.47;;;;;;;;;;4893176;29;20431;-79
2021/01/31 07:04:04;;;;;;;57.70;32.17;;;;;;;;;;4909026;29;20410;-80
2021/01/31 07:06:39;;;;;;;58.58;32.33;;;;;;;;;;4910552;29;20433;-80
2021/01/31 07:09:17;;;;;;;60.10;33.08;;;;;;;;;;4911450;29;20408;-80
2021/01/31 07:11:43;;;;;;;63.90;34.53;;;;;;;;;;4910374;29;20466;-80
2021/01/31 07:14:17;;;;;;;64.70;35.20;;;;;;;;;;4909562;29;20489;-80
2021/01/31 07:16:58;;;;;;;66.72;36.08;;;;;;;;;;4892326;29;20920;-79
2021/01/31 07:19:35;;;;;;;62.00;34.38;;;;;;;;;;4895683;29;20460;-80
2021/01/31 07:22:08;;;;;;;64.20;35.42;;;;;;;;;;4891456;29;20421;-80
2021/01/31 07:24:34;;;;;;;60.80;34.10;;;;;;;;;;4906170;29;20413;-80
2021/01/31 07:27:18;;;;;;;65.25;35.25;;;;;;;;;;4891593;29;20574;-80
2021/01/31 07:29:49;;;;;;;63.13;34.38;;;;;;;;;;4908346;29;20460;-80
2021/01/31 07:32:19;;;;;;;65.00;34.50;;;;;;;;;;4910462;29;20488;-79
2021/01/31 07:34:52;;;;;;;65.85;34.70;;;;;;;;;;4900228;29;20845;-80
2021/01/31 07:37:20;;;;;;;64.72;35.65;;;;;;;;;;4910221;29;20457;-81
2021/01/31 07:39:59;;;;;;;65.80;36.15;;;;;;;;;;4910454;29;20393;-80
2021/01/31 07:42:27;;;;;;;63.23;35.23;;;;;;;;;;4894249;29;20604;-80
2021/01/31 07:44:58;;;;;;;61.33;34.03;;;;;;;;;;4910296;29;20398;-80
2021/01/31 07:47:26;;;;;;;61.75;33.97;;;;;;;;;;4894126;29;20433;-80
2021/01/31 07:49:55;;;;;;;61.42;34.53;;;;;;;;;;4910414;29;20404;-80
2021/01/31 07:52:21;;;;;;;62.65;34.00;;;;;;;;;;4911790;29;20410;-80
2021/01/31 07:54:47;;;;;;;59.33;33.88;;;;;;;;;;4913349;29;20412;-80
2021/01/31 07:57:19;;;;;;;60.10;33.50;;;;;;;;;;4913575;29;20429;-80
2021/01/31 07:59:45;;;;;;;62.58;34.00;;;;;;;;;;4913858;29;20412;-80
2021/01/31 08:02:29;;;;;;;59.63;33.70;;;;;;;;;;4911350;29;20401;-79
2021/01/31 08:04:55;;;;;;;62.05;33.70;;;;;;;;;;4913930;29;20761;-80
2021/01/31 08:07:41;;;;;;;59.33;32.72;;;;;;;;;;4913413;29;20389;-80
2021/01/31 08:10:07;;;;;;;55.45;31.60;;;;;;;;;;4897458;29;20401;-80
2021/01/31 08:12:52;;;;;;;58.03;32.67;;;;;;;;;;4912609;29;20433;-80
2021/01/31 08:15:38;;;;;;;56.63;32.47;;;;;;;;;;4913418;29;20417;-82
2021/01/31 08:18:07;;;;;;;58.58;33.05;;;;;;;;;;4913643;29;20408;-81
2021/01/31 08:20:44;;;;;;;52.88;31.38;;;;;;;;;;4897033;29;20411;-80
2021/01/31 08:23:29;;;;;;;55.45;31.33;;;;;;;;;;4878488;29;20419;-80
2021/01/31 08:26:02;;;;;;;53.08;30.65;;;;;;;;;;4894412;29;20432;-80
2021/01/31 08:28:29;;;;;;;49.50;30.10;;;;;;;;;;4894568;29;20398;-80
2021/01/31 08:31:02;;;;;;;50.58;29.02;;;;;;;;;;4894289;29;20400;-79
2021/01/31 08:33:42;;;;;;;51.10;29.07;;;;;;;;;;4888266;29;21159;-80
2021/01/31 08:36:20;;;;;;;49.03;29.80;;;;;;;;;;4894005;29;20782;-79
2021/01/31 08:38:51;;;;;;;50.17;28.63;;;;;;;;;;4893861;29;20898;-79
2021/01/31 08:41:26;;;;;;;48.83;29.35;;;;;;;;;;4878511;29;20392;-80
2021/01/31 08:44:19;;;;;;;47.70;28.20;;;;;;;;;;4904145;29;20397;-79
2021/01/31 08:46:59;;;;;;;48.33;28.52;;;;;;;;;;4884136;29;20490;-81
2021/01/31 08:49:25;;;;;;;45.65;27.98;;;;;;;;;;4894727;29;20390;-83
2021/01/31 08:51:59;;;;;;;44.30;26.88;;;;;;;;;;4894293;29;20395;-79
2021/01/31 08:54:25;;;;;;;46.75;27.70;;;;;;;;;;4896892;29;20978;-80
2021/01/31 08:56:52;;;;;;;45.10;27.13;;;;;;;;;;4878384;29;20462;-80
2021/01/31 08:59:23;;;;;;;46.05;27.98;;;;;;;;;;4894006;29;20400;-80
2021/01/31 09:01:55;;;;;;;45.78;27.10;;;;;;;;;;4892753;29;20399;-81
2021/01/31 09:04:21;;;;;;;43.83;26.08;;;;;;;;;;4892162;29;20470;-80
2021/01/31 09:06:49;;;;;;;42.05;25.55;;;;;;;;;;4890667;29;20463;-78
2021/01/31 09:09:18;;;;;;;42.97;26.50;;;;;;;;;;4892689;29;20439;-80
2021/01/31 09:11:44;;;;;;;44.25;24.55;;;;;;;;;;4890212;29;20423;-79
2021/01/31 09:14:16;;;;;;;42.57;26.37;;;;;;;;;;4893601;29;20464;-80
2021/01/31 09:16:42;;;;;;;40.40;25.30;;;;;;;;;;4891637;29;20881;-80
2021/01/31 09:19:19;;;;;;;44.90;27.33;;;;;;;;;;4889362;29;22000;-78
2021/01/31 09:21:46;;;;;;;40.90;24.95;;;;;;;;;;4885227;29;21107;-79
2021/01/31 09:24:14;;;;;;;41.28;25.08;;;;;;;;;;4894968;29;20409;-81
2021/01/31 09:26:40;;;;;;;38.75;24.10;;;;;;;;;;4911100;29;20436;-78
2021/01/31 09:29:10;;;;;;;38.53;24.70;;;;;;;;;;4910717;29;20464;-79
2021/01/31 09:31:39;;;;;;;39.33;24.58;;;;;;;;;;4912437;29;20472;-79
2021/01/31 09:34:05;;;;;;;36.20;23.27;;;;;;;;;;4911823;29;20983;-78
2021/01/31 09:36:32;;;;;;;36.92;23.30;;;;;;;;;;4883619;29;20533;-79
2021/01/31 09:39:00;;;;;;;35.97;23.27;;;;;;;;;;4895387;29;20424;-79
2021/01/31 09:41:30;;;;;;;36.30;22.10;;;;;;;;;;4895583;29;20883;-79
2021/01/31 09:44:07;;;;;;;35.17;23.00;;;;;;;;;;4911965;29;20409;-79
2021/01/31 09:46:34;;;;;;;33.60;22.50;;;;;;;;;;4911242;29;20916;-78
2021/01/31 09:49:09;;;;;;;35.00;22.17;;;;;;;;;;4895864;29;20428;-78
2021/01/31 09:51:36;;;;;;;36.23;22.67;;;;;;;;;;4895790;29;20402;-78
2021/01/31 09:54:21;;;;;;;34.75;21.92;;;;;;;;;;4881644;29;20405;-80
2021/01/31 09:56:49;;;;;;;34.22;21.38;;;;;;;;;;4891160;29;22405;-78
2021/01/31 09:59:21;;;;;;;33.47;21.75;;;;;;;;;;4891033;29;20425;-78
2021/01/31 10:01:49;;;;;;;33.60;22.08;;;;;;;;;;4890519;29;20453;-79
2021/01/31 10:04:20;;;;;;;34.58;21.80;;;;;;;;;;4878948;29;20926;-78
2021/01/31 10:06:47;;;;;;;32.78;21.20;;;;;;;;;;4897169;29;20839;-78
2021/01/31 10:09:13;;;;;;;33.07;20.93;;;;;;;;;;4892945;29;20492;-78
2021/01/31 10:11:47;;;;;;;31.98;20.83;;;;;;;;;;4894715;29;20405;-78
2021/01/31 10:14:32;;;;;;;33.30;21.07;;;;;;;;;;4893802;29;20405;-77
2021/01/31 10:17:11;;;;;;;30.17;19.73;;;;;;;;;;4906940;29;20461;-78
2021/01/31 10:19:37;;;;;;;29.58;19.73;;;;;;;;;;4907993;29;20405;-79
2021/01/31 10:22:10;;;;;;;31.87;20.40;;;;;;;;;;4893861;29;20496;-79
2021/01/31 10:24:36;;;;;;;29.48;19.98;;;;;;;;;;4907093;29;21213;-81
2021/01/31 10:27:06;;;;;;;29.70;19.85;;;;;;;;;;4892643;29;20413;-79
2021/01/31 10:29:33;;;;;;;30.08;20.42;;;;;;;;;;4893914;29;20721;-79
2021/01/31 10:32:17;;;;;;;29.33;19.83;;;;;;;;;;4910794;29;20927;-80
2021/01/31 10:34:43;;;;;;;32.35;21.00;;;;;;;;;;4904918;29;20423;-79
2021/01/31 10:37:17;;;;;;;29.17;19.23;;;;;;;;;;4908423;29;20832;-79
2021/01/31 10:39:46;;;;;;;29.17;19.27;;;;;;;;;;4895035;29;20397;-79
2021/01/31 10:42:12;;;;;;;31.17;20.23;;;;;;;;;;4892576;29;20425;-79
2021/01/31 10:44:38;;;;;;;28.98;18.60;;;;;;;;;;4892431;29;20480;-80
2021/01/31 10:47:04;;;;;;;28.40;19.08;;;;;;;;;;4894453;29;20485;-79
2021/01/31 10:49:30;;;;;;;27.23;17.92;;;;;;;;;;4893816;29;20413;-79
2021/01/31 10:51:56;;;;;;;28.02;19.15;;;;;;;;;;4909235;29;20417;-79
2021/01/31 10:54:23;;;;;;;28.17;19.88;;;;;;;;;;4910875;29;20420;-80
2021/01/31 10:56:49;;;;;;;27.73;18.58;;;;;;;;;;4908956;29;20516;-80
2021/01/31 10:59:15;;;;;;;29.15;19.27;;;;;;;;;;4910168;29;20485;-80
2021/01/31 11:01:45;;;;;;;27.70;18.70;;;;;;;;;;4907766;29;20410;-79
2021/01/31 11:04:11;;;;;;;28.40;18.33;;;;;;;;;;4894884;29;20399;-80
2021/01/31 11:06:37;;;;;;;27.65;18.45;;;;;;;;;;4895546;29;20475;-79
2021/01/31 11:09:04;;;;;;;29.05;18.90;;;;;;;;;;4900527;29;20481;-80
2021/01/31 11:11:30;;;;;;;25.35;17.02;;;;;;;;;;4897990;29;20412;-78
2021/01/31 11:13:56;;;;;;;24.80;17.23;;;;;;;;;;4899127;29;20418;-79
2021/01/31 11:16:22;;;;;;;24.60;17.63;;;;;;;;;;4898533;29;20755;-80
2021/01/31 11:18:48;;;;;;;27.63;17.77;;;;;;;;;;4893948;29;20508;-80
2021/01/31 11:21:16;;;;;;;23.67;16.75;;;;;;;;;;4893194;29;20513;-80
2021/01/31 11:23:42;;;;;;;24.52;17.45;;;;;;;;;;4907247;29;20806;-80
2021/01/31 11:26:08;;;;;;;23.25;17.23;;;;;;;;;;4892740;29;20409;-79
2021/01/31 11:28:34;;;;;;;22.52;16.55;;;;;;;;;;4913476;29;20402;-79
2021/01/31 11:31:00;;;;;;;26.08;18.10;;;;;;;;;;4907162;29;20405;-79
2021/01/31 11:33:26;;;;;;;25.52;17.23;;;;;;;;;;4906336;29;20421;-79
2021/01/31 11:35:52;;;;;;;21.93;14.73;;;;;;;;;;4900244;29;20477;-78
2021/01/31 11:38:18;;;;;;;22.95;15.30;;;;;;;;;;4902939;29;20418;-79
2021/01/31 11:40:44;;;;;;;21.80;15.48;;;;;;;;;;4907017;29;20442;-79
2021/01/31 11:43:10;;;;;;;23.25;15.35;;;;;;;;;;4913106;29;20417;-78
2021/01/31 11:45:35;;;;;;;21.90;15.15;;;;;;;;;;4895896;29;20492;-79
2021/01/31 11:48:01;;;;;;;21.47;14.87;;;;;;;;;;4897694;29;20438;-79
2021/01/31 11:50:27;;;;;;;21.77;14.57;;;;;;;;;;4896080;29;20405;-85
2021/01/31 11:52:54;;;;;;;22.23;14.90;;;;;;;;;;4908325;29;20841;-81
2021/01/31 11:55:20;;;;;;;22.05;15.65;;;;;;;;;;4896410;29;20417;-80
2021/01/31 11:57:46;;;;;;;21.07;14.07;;;;;;;;;;4897004;29;20508;-80
2021/01/31 12:00:13;;;;;;;23.00;14.65;;;;;;;;;;4913815;29;20398;-80
2021/01/31 12:02:39;;;;;;;21.00;14.23;;;;;;;;;;4911515;29;20443;-81
2021/01/31 12:05:06;;;;;;;19.92;13.55;;;;;;;;;;4911053;29;20502;-81
2021/01/31 12:07:32;;;;;;;20.10;13.93;;;;;;;;;;4896511;29;20505;-80
2021/01/31 12:10:00;;;;;;;21.05;14.10;;;;;;;;;;4894113;29;20414;-80
2021/01/31 12:12:26;;;;;;;20.60;13.25;;;;;;;;;;4913579;29;20405;-80
2021/01/31 12:14:52;;;;;;;20.85;12.95;;;;;;;;;;4890746;29;20424;-80
2021/01/31 12:17:18;;;;;;;22.33;13.27;;;;;;;;;;4892322;29;20440;-80
2021/01/31 12:19:44;;;;;;;18.55;12.82;;;;;;;;;;4897212;29;20409;-80
2021/01/31 12:22:10;;;;;;;17.75;12.68;;;;;;;;;;4893984;29;20432;-80
2021/01/31 12:24:36;;;;;;;17.92;12.45;;;;;;;;;;4897047;29;20809;-81
2021/01/31 12:27:02;;;;;;;17.73;12.55;;;;;;;;;;4895779;29;20429;-80
2021/01/31 12:29:28;;;;;;;17.35;11.52;;;;;;;;;;4894207;29;20413;-81
2021/01/31 12:31:54;;;;;;;16.67;11.88;;;;;;;;;;4910026;29;20432;-81
2021/01/31 12:34:20;;;;;;;16.63;11.77;;;;;;;;;;4912896;29;20413;-81
2021/01/31 12:36:46;;;;;;;17.27;12.13;;;;;;;;;;4892157;29;20440;-80
2021/01/31 12:39:12;;;;;;;17.60;12.38;;;;;;;;;;4911712;29;20394;-80
2021/01/31 12:41:38;;;;;;;17.15;12.27;;;;;;;;;;4896182;29;20417;-80
2021/01/31 12:44:04;;;;;;;19.25;12.65;;;;;;;;;;4896172;29;20477;-80
2021/01/31 12:46:30;;;;;;;18.88;12.60;;;;;;;;;;4911090;29;20423;-82
2021/01/31 12:48:56;;;;;;;17.13;11.73;;;;;;;;;;4911132;29;20911;-80
2021/01/31 12:51:22;;;;;;;18.30;12.07;;;;;;;;;;4893652;29;20421;-80
2021/01/31 12:53:48;;;;;;;17.38;11.88;;;;;;;;;;4895267;29;20409;-80
2021/01/31 12:56:14;;;;;;;18.03;12.23;;;;;;;;;;4908124;29;20465;-80
2021/01/31 12:58:40;;;;;;;17.05;11.73;;;;;;;;;;4894687;29;20416;-82
2021/01/31 13:01:07;;;;;;;17.13;12.05;;;;;;;;;;4912051;29;20397;-79
2021/01/31 13:03:35;;;;;;;17.70;12.40;;;;;;;;;;4894718;29;20419;-82
2021/01/31 13:06:00;;;;;;;17.80;12.55;;;;;;;;;;4910726;29;20417;-82
2021/01/31 13:08:26;;;;;;;18.33;11.98;;;;;;;;;;4894297;29;20496;-81
2021/01/31 13:10:55;;;;;;;17.13;12.00;;;;;;;;;;4895315;29;20549;-82
2021/01/31 13:13:21;;;;;;;14.77;11.18;;;;;;;;;;4893572;29;20807;-80
2021/01/31 13:15:47;;;;;;;17.90;11.83;;;;;;;;;;4896198;29;20437;-80
2021/01/31 13:18:13;;;;;;;17.48;11.93;;;;;;;;;;4892641;29;20403;-81
2021/01/31 13:20:39;;;;;;;16.17;11.68;;;;;;;;;;4896308;29;20837;-81
2021/01/31 13:23:05;;;;;;;16.70;11.57;;;;;;;;;;4891965;29;20944;-80
2021/01/31 13:25:32;;;;;;;16.70;11.23;;;;;;;;;;4896308;29;20428;-81
2021/01/31 13:28:00;;;;;;;17.83;12.05;;;;;;;;;;4909834;29;20421;-80
2021/01/31 13:30:27;;;;;;;17.07;11.70;;;;;;;;;;4912167;29;20879;-81
2021/01/31 13:32:54;;;;;;;15.82;10.90;;;;;;;;;;4896801;29;20934;-80
2021/01/31 13:35:23;;;;;;;15.85;11.30;;;;;;;;;;4909851;29;20461;-82
2021/01/31 13:37:49;;;;;;;15.55;11.13;;;;;;;;;;4910164;29;20467;-80
2021/01/31 13:40:16;;;;;;;16.08;10.90;;;;;;;;;;4912048;29;20394;-79
2021/01/31 13:42:42;;;;;;;18.60;11.43;;;;;;;;;;4895173;29;20412;-80
2021/01/31 13:45:11;;;;;;;15.63;10.90;;;;;;;;;;4912028;29;20443;-81
2021/01/31 13:47:37;;;;;;;15.65;11.15;;;;;;;;;;4893594;29;20433;-81
2021/01/31 13:50:04;;;;;;;15.23;11.20;;;;;;;;;;4910069;29;20528;-81
2021/01/31 13:52:30;;;;;;;14.73;10.32;;;;;;;;;;4910968;29;20927;-80
2021/01/31 13:54:56;;;;;;;16.13;11.00;;;;;;;;;;4895686;29;20400;-80
2021/01/31 13:57:24;;;;;;;15.65;10.60;;;;;;;;;;4897399;29;20482;-82
2021/01/31 13:59:50;;;;;;;16.52;11.43;;;;;;;;;;4910284;29;20456;-80
2021/01/31 14:02:18;;;;;;;16.27;11.32;;;;;;;;;;4892480;29;20420;-81
2021/01/31 14:04:47;;;;;;;20.23;11.57;;;;;;;;;;4895469;29;20809;-80
2021/01/31 14:07:13;;;;;;;17.17;11.65;;;;;;;;;;4895037;29;21044;-81
2021/01/31 14:09:39;;;;;;;15.88;10.90;;;;;;;;;;4909297;29;21142;-80
2021/01/31 14:12:06;;;;;;;16.85;12.00;;;;;;;;;;4894486;29;20573;-80
2021/01/31 14:14:32;;;;;;;18.90;12.25;;;;;;;;;;4894433;29;20488;-80
2021/01/31 14:16:59;;;;;;;17.23;11.82;;;;;;;;;;4891740;29;20864;-80
2021/01/31 14:19:25;;;;;;;20.85;13.68;;;;;;;;;;4891543;29;20408;-80
2021/01/31 14:21:51;;;;;;;18.63;12.85;;;;;;;;;;4910892;29;20444;-80
2021/01/31 14:24:18;;;;;;;23.10;15.52;;;;;;;;;;4885346;29;20434;-80
2021/01/31 14:26:44;;;;;;;22.42;14.77;;;;;;;;;;4887945;29;20414;-80
2021/01/31 14:29:12;;;;;;;20.05;13.00;;;;;;;;;;4884361;29;20422;-81